createdAt,value
2019-05-18T00:01:37.183Z,96.41
2019-05-18T00:06:42.487Z,96.50
2019-05-18T00:16:59.107Z,96.35
2019-05-18T00:22:04.463Z,96.55
2019-05-18T00:27:09.717Z,96.72
2019-05-18T00:32:15.043Z,96.70
2019-05-18T00:37:20.291Z,96.82
2019-05-18T00:42:25.571Z,96.86
2019-05-18T00:47:40.888Z,96.95
2019-05-18T00:52:37.788Z,96.99
2019-05-18T00:57:43.056Z,97.12
2019-05-18T01:02:48.319Z,97.15
2019-05-18T01:07:53.603Z,97.16
2019-05-18T01:12:58.905Z,97.23
2019-05-18T01:18:04.351Z,97.21
2019-05-18T01:23:09.655Z,97.12
2019-05-18T01:28:14.930Z,97.15
2019-05-18T01:33:20.048Z,96.85
2019-05-18T01:38:25.280Z,96.80
2019-05-18T01:43:30.511Z,96.79
2019-05-18T01:48:35.726Z,96.57
2019-05-18T01:53:40.923Z,96.30
2019-05-18T01:58:46.262Z,96.23
2019-05-18T02:03:51.690Z,95.97
2019-05-18T02:08:56.925Z,96.00
2019-05-18T02:14:02.366Z,96.01
2019-05-18T02:19:07.591Z,96.00
2019-05-18T02:24:12.838Z,95.95
2019-05-18T02:29:18.138Z,95.93
2019-05-18T02:34:23.350Z,95.92
2019-05-18T02:39:28.591Z,95.78
2019-05-18T02:44:33.939Z,95.55
2019-05-18T02:49:39.283Z,95.34
2019-05-18T02:54:44.607Z,95.12
2019-05-18T02:59:49.826Z,94.80
2019-05-18T03:04:55.163Z,94.73
2019-05-18T03:10:00.240Z,94.67
2019-05-18T03:15:05.730Z,94.67
2019-05-18T03:20:11.401Z,94.71
2019-05-18T03:25:16.771Z,94.67
2019-05-18T03:30:22.089Z,94.34
2019-05-18T03:35:27.372Z,94.43
2019-05-18T03:40:32.598Z,94.14
2019-05-18T03:45:37.823Z,94.14
2019-05-18T03:50:43.682Z,93.85
2019-05-18T03:55:48.905Z,93.77
2019-05-18T04:00:54.184Z,93.70
2019-05-18T04:05:59.501Z,93.82
2019-05-18T04:11:04.915Z,93.74
2019-05-18T04:16:10.224Z,93.80
2019-05-18T04:21:15.596Z,93.71
2019-05-18T04:26:20.779Z,93.78
2019-05-18T04:31:26.005Z,94.04
2019-05-18T04:36:31.268Z,93.94
2019-05-18T04:41:36.612Z,94.15
2019-05-18T04:46:41.927Z,94.37
2019-05-18T04:51:47.060Z,94.48
2019-05-18T04:56:52.304Z,94.44
2019-05-18T05:01:57.644Z,94.77
2019-05-18T05:07:02.775Z,95.05
2019-05-18T05:12:08.107Z,95.75
2019-05-18T05:17:13.312Z,96.15
2019-05-18T05:22:18.719Z,96.42
2019-05-18T05:27:23.999Z,96.58
2019-05-18T05:32:29.322Z,96.72
2019-05-18T05:37:34.655Z,96.86
2019-05-18T05:42:39.955Z,96.78
2019-05-18T05:47:45.165Z,96.77
2019-05-18T05:52:50.364Z,97.04
2019-05-18T05:57:55.573Z,97.22
2019-05-18T06:03:00.798Z,97.28
2019-05-18T06:08:06.290Z,97.61
2019-05-18T06:13:11.631Z,97.80
2019-05-18T06:18:16.898Z,98.13
2019-05-18T06:23:22.217Z,98.46
2019-05-18T06:28:27.642Z,98.34
2019-05-18T06:33:32.805Z,98.55
2019-05-18T06:38:38.294Z,98.61
2019-05-18T06:43:43.635Z,98.83
2019-05-18T06:48:48.927Z,98.74
2019-05-18T06:53:54.406Z,98.84
2019-05-18T06:59:00.920Z,99.02
2019-05-18T07:04:06.292Z,99.23
2019-05-18T07:09:14.078Z,99.50
2019-05-18T07:14:25.729Z,99.37
2019-05-18T07:19:25.734Z,99.37
2019-05-18T07:24:31.105Z,99.48
2019-05-18T07:29:36.432Z,99.12
2019-05-18T07:34:41.670Z,99.14
2019-05-18T07:39:46.978Z,99.00
2019-05-18T07:48:57.148Z,98.85
2019-05-18T07:54:01.723Z,98.61
2019-05-18T07:59:06.783Z,98.33
2019-05-18T08:04:11.628Z,97.89
2019-05-18T08:09:16.399Z,97.76
2019-05-18T08:14:21.387Z,97.56
2019-05-18T08:19:26.391Z,97.06
2019-05-18T08:24:31.647Z,96.49
2019-05-18T08:29:36.952Z,96.21
2019-05-18T08:34:41.628Z,95.16
2019-05-18T08:39:46.295Z,95.16
2019-05-18T08:44:51.106Z,94.62
2019-05-18T08:49:55.788Z,93.54
2019-05-18T08:55:00.599Z,93.54
2019-05-18T09:00:05.834Z,93.02
2019-05-18T09:05:11.690Z,92.41
2019-05-18T09:10:16.666Z,89.90
2019-05-18T09:15:22.599Z,89.21
2019-05-18T09:20:27.827Z,88.08
2019-05-18T09:25:32.719Z,84.43
2019-05-18T09:30:37.790Z,83.01
2019-05-18T09:35:42.584Z,82.98
2019-05-18T09:40:47.155Z,83.17
2019-05-18T09:45:51.932Z,83.17
2019-05-18T09:50:56.735Z,82.95
2019-05-18T09:56:01.501Z,82.77
2019-05-18T10:01:06.327Z,82.93
2019-05-18T10:06:11.461Z,81.80
2019-05-18T10:11:16.293Z,82.76
2019-05-18T10:16:20.902Z,83.17
2019-05-18T10:21:25.738Z,82.82
2019-05-18T10:26:30.498Z,81.89
2019-05-18T10:31:35.267Z,81.36
2019-05-18T10:36:40.239Z,81.70
2019-05-18T10:41:44.983Z,80.83
2019-05-18T10:46:50.162Z,79.73
2019-05-18T10:51:55.383Z,79.37
2019-05-18T10:57:00.054Z,79.71
2019-05-18T11:02:05.715Z,79.78
2019-05-18T11:07:10.340Z,79.28
2019-05-18T11:12:16.290Z,79.21
2019-05-18T11:17:21.205Z,76.18
2019-05-18T11:22:26.471Z,78.53
2019-05-18T11:27:31.541Z,77.94
2019-05-18T11:32:37.166Z,75.79
2019-05-18T11:37:42.170Z,76.19
2019-05-18T11:42:47.366Z,76.67
2019-05-18T11:47:52.674Z,75.86
2019-05-18T11:52:57.885Z,76.55
2019-05-18T11:58:02.659Z,74.84
2019-05-18T12:03:07.239Z,75.44
2019-05-18T12:08:11.901Z,74.57
2019-05-18T12:13:17.093Z,74.02
2019-05-18T12:18:21.951Z,68.16
2019-05-18T12:23:26.754Z,65.48
2019-05-18T12:28:31.639Z,67.73
2019-05-18T12:33:37.012Z,71.27
2019-05-18T12:38:41.715Z,69.28
2019-05-18T12:43:46.991Z,69.53
2019-05-18T12:48:51.750Z,69.56
2019-05-18T12:53:56.504Z,67.49
2019-05-18T12:59:01.255Z,65.25
2019-05-18T13:04:06.086Z,69.08
2019-05-18T13:09:11.483Z,69.92
2019-05-18T13:14:16.602Z,66.68
2019-05-18T13:19:21.488Z,68.74
2019-05-18T13:24:26.289Z,66.32
2019-05-18T13:29:31.092Z,64.87
2019-05-18T13:34:36.243Z,62.20
2019-05-18T13:39:40.894Z,62.80
2019-05-18T13:44:45.545Z,61.41
2019-05-18T13:49:50.380Z,59.12
2019-05-18T13:55:03.611Z,59.89
2019-05-18T14:00:02.044Z,59.62
2019-05-18T14:05:07.194Z,60.62
2019-05-18T14:10:12.722Z,62.22
2019-05-18T14:15:17.872Z,62.49
2019-05-18T14:20:26.064Z,59.93
2019-05-18T14:25:29.439Z,59.01
2019-05-18T14:30:34.195Z,59.71
2019-05-18T14:35:39.039Z,62.38
2019-05-18T14:40:43.989Z,63.71
2019-05-18T14:45:49.536Z,62.26
2019-05-18T14:50:55.114Z,61.44
2019-05-18T14:56:00.032Z,61.31
2019-05-18T15:01:04.691Z,64.12
2019-05-18T15:06:09.461Z,64.43
2019-05-18T15:11:14.211Z,64.26
2019-05-18T15:16:18.990Z,66.32
2019-05-18T15:21:24.344Z,67.42
2019-05-18T15:26:29.046Z,66.48
2019-05-18T15:31:33.765Z,65.45
2019-05-18T15:36:38.548Z,67.53
2019-05-18T15:41:43.413Z,70.41
2019-05-18T15:46:48.196Z,70.08
2019-05-18T15:51:53.495Z,68.09
2019-05-18T15:56:58.137Z,66.03
2019-05-18T16:02:06.481Z,66.66
2019-05-18T16:07:09.459Z,68.87
2019-05-18T16:12:14.332Z,69.92
2019-05-18T16:17:19.068Z,71.02
2019-05-18T16:22:24.344Z,71.53
2019-05-18T16:27:29.915Z,72.21
2019-05-18T16:32:35.046Z,73.19
2019-05-18T16:37:40.367Z,72.78
2019-05-18T16:42:46.664Z,72.47
2019-05-18T16:47:51.494Z,73.05
2019-05-18T16:52:56.416Z,74.44
2019-05-18T16:58:01.051Z,74.73
2019-05-18T17:03:05.681Z,74.97
2019-05-18T17:08:10.507Z,75.20
2019-05-18T17:13:15.638Z,75.81
2019-05-18T17:18:20.273Z,76.26
2019-05-18T17:23:25.214Z,76.96
2019-05-18T17:28:30.209Z,77.62
2019-05-18T17:33:34.957Z,78.04
2019-05-18T17:38:39.641Z,77.91
2019-05-18T17:43:44.656Z,77.30
2019-05-18T17:54:00.046Z,76.99
2019-05-18T17:59:04.665Z,77.78
2019-05-18T18:04:09.264Z,78.79
2019-05-18T18:09:13.987Z,78.56
2019-05-18T18:14:18.832Z,78.80
2019-05-18T18:24:28.259Z,79.67
2019-05-18T18:29:32.944Z,79.33
2019-05-18T18:34:37.580Z,79.59
2019-05-18T18:39:42.305Z,80.04
2019-05-18T18:44:47.186Z,80.95
2019-05-18T18:49:51.796Z,80.95
2019-05-18T19:05:57.918Z,82.52
2019-05-18T19:16:13.756Z,83.92
2019-05-18T19:21:18.561Z,84.30
2019-05-18T19:26:23.591Z,84.84
2019-05-18T19:31:28.470Z,85.47
2019-05-18T19:36:33.190Z,85.94
2019-05-18T19:41:37.870Z,86.42
2019-05-18T19:46:42.669Z,86.91
2019-05-18T19:51:47.289Z,87.89
2019-05-18T19:56:52.212Z,88.37
2019-05-18T20:01:57.090Z,88.97
2019-05-18T20:07:01.840Z,89.31
2019-05-18T20:12:06.609Z,89.72
2019-05-18T20:17:11.382Z,90.32
2019-05-18T20:22:16.030Z,90.47
2019-05-18T20:27:20.927Z,90.77
2019-05-18T20:32:25.926Z,91.25
2019-05-18T20:37:30.859Z,91.77
2019-05-18T20:42:37.686Z,92.22
2019-05-18T20:47:42.012Z,92.56
2019-05-18T20:52:46.849Z,92.93
2019-05-18T20:57:51.530Z,93.07
2019-05-18T21:02:56.370Z,93.29
2019-05-18T21:08:01.169Z,93.41
2019-05-18T21:13:05.873Z,93.24
2019-05-18T21:18:10.650Z,93.15
2019-05-18T21:23:15.587Z,92.92
2019-05-18T21:28:20.431Z,92.82
2019-05-18T21:33:25.146Z,92.79
2019-05-18T21:38:29.798Z,92.92
2019-05-18T21:43:34.721Z,93.01
2019-05-18T21:48:39.409Z,93.21
2019-05-18T21:53:44.169Z,93.58
2019-05-18T21:58:48.965Z,94.18
2019-05-18T22:03:53.669Z,94.57
2019-05-18T22:08:58.513Z,94.95
2019-05-18T22:14:03.556Z,94.95
2019-05-18T22:19:08.358Z,95.00
2019-05-18T22:24:13.449Z,95.04
2019-05-18T22:29:18.099Z,95.46
2019-05-18T22:34:22.912Z,95.47
2019-05-18T22:39:27.642Z,95.87
2019-05-18T22:44:33.429Z,96.05
2019-05-18T22:49:38.170Z,96.04
2019-05-18T22:54:42.834Z,96.06
2019-05-18T22:59:47.981Z,96.07
2019-05-18T23:04:52.729Z,96.12
2019-05-18T23:09:57.543Z,96.13
2019-05-18T23:15:02.229Z,96.16
2019-05-18T23:20:07.542Z,96.19
2019-05-18T23:25:12.548Z,96.14
2019-05-18T23:30:17.394Z,96.13
2019-05-18T23:35:22.366Z,95.69
2019-05-18T23:40:27.150Z,95.44
2019-05-18T23:45:31.863Z,95.19
2019-05-18T23:50:36.570Z,94.96
2019-05-18T23:55:41.305Z,94.73
